| time (UTC) | temp F | wind direction | speed knots | gust knots | rain 1hr in | rain 24hr in | rain mn in | humidity % | barometer mb |
| 20260510134124 | 60 | 193 | 0.9 | 0.9 | 0.00 | 0.00 | 0.00 | 87 | 1009.9 |
| 20260510133620 | 60 | 188 | 0.9 | 0.9 | 0.00 | 0.00 | 0.00 | 84 | 1010.1 |
| 20260510133115 | 60 | 188 | 0.9 | 0.9 | 0.00 | 0.00 | 0.00 | 85 | 1010.1 |
| 20260510132612 | 58 | 188 | 0.9 | 0.9 | 0.00 | 0.00 | 0.00 | 89 | 1010.2 |
| 20260510132109 | 57 | 186 | 0.9 | 0.9 | 0.00 | 0.00 | 0.00 | 89 | 1010.2 |
| 20260510131607 | 58 | 186 | 1.7 | 1.7 | 0.00 | 0.00 | 0.00 | 89 | 1010.3 |
| 20260510131104 | 57 | 186 | 1.7 | 1.7 | 0.00 | 0.00 | 0.00 | 93 | 1010.4 |
| 20260510130600 | 56 | 186 | 0.0 | 0.0 | 0.00 | 0.00 | 0.00 | 92 | 1010.4 |
| 20260510130058 | 56 | 186 | 0.0 | 0.9 | 0.00 | 0.00 | 0.00 | 95 | 1010.2 |
| 20260510125554 | 55 | 186 | 0.0 | 0.0 | 0.00 | 0.00 | 0.00 | 96 | 1010.2 |
| 20260510125050 | 55 | 186 | 0.0 | 0.0 | 0.00 | 0.00 | 0.00 | 99 | 1010.3 |
| 20260510124547 | 54 | 186 | 0.9 | 0.9 | 0.00 | 0.00 | 0.00 | 99 | 1010.3 |
| 20260510124044 | 54 | 186 | 0.9 | 0.9 | 0.00 | 0.00 | 0.00 | 99 | 1009.8 |
| 20260510123539 | 54 | 186 | 0.0 | 0.0 | 0.00 | 0.00 | 0.00 | 99 | 1009.9 |
| 20260510123036 | 53 | 178 | 0.0 | 0.9 | 0.00 | 0.00 | 0.00 | 99 | 1010.1 |
| 20260510122531 | 52 | 179 | 0.0 | 0.9 | 0.00 | 0.00 | 0.00 | 99 | 1009.8 |
| 20260510122028 | 52 | 181 | 0.9 | 1.7 | 0.00 | 0.00 | 0.00 | 99 | 1010.2 |
| 20260510121525 | 52 | 180 | 0.0 | 0.9 | 0.00 | 0.00 | 0.00 | 99 | 1009.8 |
| 20260510121022 | 52 | 174 | 0.0 | 0.0 | 0.00 | 0.00 | 0.00 | 99 | 1009.8 |
| 20260510120520 | 52 | 197 | 1.7 | 1.7 | 0.00 | 0.00 | 0.00 | 99 | 1009.7 |
| 20260510120016 | 52 | 146 | 0.0 | 0.0 | 0.00 | 0.00 | 0.00 | 99 | 1009.6 |
| 20260510115512 | 52 | 145 | 0.0 | 0.0 | 0.00 | 0.00 | 0.00 | 99 | 1009.5 |
| 20260510115009 | 51 | 145 | 0.0 | 0.9 | 0.00 | 0.00 | 0.00 | 99 | 1009.2 |
| 20260510114505 | 51 | 145 | 0.0 | 0.0 | 0.00 | 0.00 | 0.00 | 99 | 1009.2 |
| 20260510114001 | 51 | 145 | 0.0 | 0.0 | 0.00 | 0.00 | 0.00 | 99 | 1009.1 |
| 20260510113456 | 50 | 143 | 0.0 | 0.0 | 0.00 | 0.00 | 0.00 | 99 | 1009.2 |
| 20260510112954 | 50 | 143 | 0.0 | 0.0 | 0.00 | 0.00 | 0.00 | 99 | 1009.0 |
| 20260510112451 | 50 | 143 | 0.0 | 0.0 | 0.00 | 0.00 | 0.00 | 99 | 1009.3 |
| 20260510111947 | 50 | 199 | 0.0 | 0.0 | 0.00 | 0.00 | 0.00 | 99 | 1009.4 |
| 20260510111443 | 50 | 199 | 0.0 | 0.0 | 0.00 | 0.00 | 0.00 | 99 | 1009.1 |
| 20260510110939 | 49 | 199 | 0.0 | 0.0 | 0.00 | 0.00 | 0.00 | 99 | 1009.1 |
| 20260510110435 | 49 | 199 | 0.0 | 0.0 | 0.00 | 0.00 | 0.00 | 99 | 1008.8 |
| 20260510105931 | 49 | 199 | 0.0 | 0.0 | 0.00 | 0.00 | 0.00 | 99 | 1008.9 |
| 20260510105427 | 49 | 199 | 0.0 | 0.0 | 0.00 | 0.00 | 0.00 | 99 | 1008.8 |
| 20260510104922 | 49 | 200 | 0.0 | 0.0 | 0.00 | 0.00 | 0.00 | 99 | 1008.8 |
| 20260510104419 | 49 | 199 | 0.0 | 0.0 | 0.00 | 0.00 | 0.00 | 99 | 1008.5 |
| 20260510103915 | 49 | 199 | 0.0 | 0.0 | 0.00 | 0.00 | 0.00 | 99 | 1008.7 |
| 20260510103413 | 49 | 199 | 0.0 | 0.0 | 0.00 | 0.00 | 0.00 | 99 | 1009.0 |
| 20260510102908 | 49 | 199 | 0.0 | 0.0 | 0.00 | 0.00 | 0.00 | 99 | 1008.6 |
| 20260510102404 | 49 | 199 | 0.0 | 0.0 | 0.00 | 0.00 | 0.00 | 99 | 1008.5 |
| 20260510101902 | 49 | 199 | 0.0 | 0.0 | 0.00 | 0.00 | 0.00 | 99 | 1008.6 |
| 20260510101359 | 49 | 199 | 0.0 | 0.0 | 0.00 | 0.00 | 0.00 | 99 | 1008.7 |
| 20260510100856 | 49 | 199 | 0.0 | 0.0 | 0.00 | 0.00 | 0.00 | 99 | 1008.7 |
| 20260510100353 | 49 | 199 | 0.0 | 0.0 | 0.00 | 0.00 | 0.00 | 99 | 1008.4 |
| 20260510095850 | 49 | 199 | 0.0 | 0.0 | 0.00 | 0.00 | 0.00 | 99 | 1008.4 |
| 20260510095344 | 49 | 199 | 0.0 | 0.0 | 0.00 | 0.00 | 0.00 | 99 | 1008.5 |
| 20260510094844 | 49 | 199 | 0.0 | 0.0 | 0.00 | 0.00 | 0.00 | 99 | 1008.4 |
| 20260510094339 | 49 | 198 | 0.0 | 0.0 | 0.00 | 0.00 | 0.00 | 99 | 1008.2 |
| 20260510093836 | 49 | 198 | 0.0 | 0.0 | 0.00 | 0.00 | 0.00 | 99 | 1008.2 |
| 20260510093332 | 49 | 198 | 0.0 | 0.0 | 0.00 | 0.00 | 0.00 | 99 | 1008.1 |
| 20260510092828 | 49 | 198 | 0.0 | 0.0 | 0.00 | 0.00 | 0.00 | 99 | 1008.3 |
| 20260510092324 | 49 | 198 | 0.0 | 0.9 | 0.00 | 0.00 | 0.00 | 99 | 1008.2 |
| 20260510091820 | 49 | 198 | 0.0 | 0.0 | 0.00 | 0.00 | 0.00 | 99 | 1008.0 |
| 20260510091318 | 49 | 203 | 0.0 | 0.0 | 0.00 | 0.00 | 0.00 | 99 | 1007.9 |
| 20260510090814 | 49 | 203 | 0.0 | 0.0 | 0.00 | 0.00 | 0.00 | 99 | 1008.0 |
| 20260510090311 | 49 | 203 | 0.9 | 0.9 | 0.00 | 0.00 | 0.00 | 99 | 1008.2 |
| 20260510085807 | 49 | 203 | 0.9 | 0.9 | 0.00 | 0.00 | 0.00 | 99 | 1007.9 |
| 20260510085307 | 49 | 203 | 0.0 | 0.0 | 0.00 | 0.00 | 0.00 | 99 | 1008.1 |
| 20260510084803 | 49 | 203 | 0.0 | 0.0 | 0.00 | 0.00 | 0.00 | 99 | 1007.8 |
| 20260510084259 | 49 | 203 | 0.9 | 0.9 | 0.00 | 0.00 | 0.00 | 99 | 1007.7 |
| 20260510083756 | 50 | 203 | 0.0 | 0.0 | 0.00 | 0.00 | 0.00 | 99 | 1007.8 |
| 20260510083254 | 50 | 203 | 0.0 | 0.0 | 0.00 | 0.00 | 0.00 | 99 | 1007.9 |
| 20260510082749 | 50 | 203 | 0.9 | 0.9 | 0.00 | 0.00 | 0.00 | 99 | 1007.9 |
| 20260510082245 | 49 | 203 | 0.0 | 0.0 | 0.00 | 0.00 | 0.00 | 99 | 1007.7 |
| 20260510081744 | 49 | 203 | 0.0 | 0.0 | 0.00 | 0.00 | 0.00 | 99 | 1007.9 |
| 20260510081241 | 49 | 203 | 0.0 | 0.0 | 0.00 | 0.00 | 0.00 | 99 | 1008.0 |
| 20260510080736 | 49 | 203 | 0.0 | 0.0 | 0.00 | 0.00 | 0.00 | 99 | 1008.1 |
| 20260510080232 | 49 | 203 | 0.0 | 0.0 | 0.00 | 0.00 | 0.00 | 99 | 1008.1 |
| 20260510075729 | 49 | 203 | 0.0 | 0.0 | 0.00 | 0.00 | 0.00 | 99 | 1008.1 |
| 20260510075227 | 49 | 203 | 0.0 | 0.0 | 0.00 | 0.00 | 0.00 | 99 | 1008.2 |
| 20260510074724 | 49 | 203 | 0.0 | 0.0 | 0.00 | 0.00 | 0.00 | 99 | 1008.1 |
| 20260510074220 | 49 | 203 | 0.0 | 0.0 | 0.00 | 0.00 | 0.00 | 99 | 1008.2 |
| 20260510073716 | 49 | 203 | 0.9 | 0.9 | 0.00 | 0.00 | 0.00 | 99 | 1008.1 |
| 20260510073212 | 49 | 203 | 0.9 | 0.9 | 0.00 | 0.00 | 0.00 | 99 | 1008.1 |
| 20260510072708 | 50 | 203 | 0.0 | 0.0 | 0.00 | 0.00 | 0.00 | 99 | 1008.7 |
| 20260510072205 | 50 | 203 | 0.0 | 0.0 | 0.00 | 0.00 | 0.00 | 99 | 1008.5 |
| 20260510071701 | 50 | 203 | 0.0 | 0.0 | 0.00 | 0.00 | 0.00 | 99 | 1008.7 |
| 20260510071158 | 50 | 204 | 0.9 | 0.9 | 0.00 | 0.00 | 0.00 | 99 | 1008.6 |
| 20260510070656 | 50 | 204 | 0.0 | 0.0 | 0.00 | 0.00 | 0.00 | 99 | 1008.7 |
| 20260510070154 | 50 | 204 | 0.0 | 0.0 | 0.00 | 0.00 | 0.00 | 99 | 1008.7 |
| 20260510065649 | 50 | 204 | 0.0 | 0.0 | 0.00 | 0.00 | 0.00 | 99 | 1008.8 |
| 20260510065145 | 50 | 204 | 0.0 | 0.0 | 0.00 | 0.00 | 0.00 | 99 | 1008.6 |
| 20260510064642 | 50 | 204 | 0.0 | 0.0 | 0.00 | 0.00 | 0.00 | 99 | 1008.9 |
| 20260510064138 | 50 | 204 | 0.9 | 0.9 | 0.00 | 0.00 | 0.00 | 99 | 1008.9 |
| 20260510063636 | 50 | 204 | 0.0 | 0.9 | 0.00 | 0.00 | 0.00 | 99 | 1009.0 |
| 20260510063132 | 50 | 204 | 0.9 | 0.9 | 0.00 | 0.00 | 0.00 | 99 | 1009.0 |
| 20260510062628 | 50 | 210 | 0.9 | 0.9 | 0.00 | 0.00 | 0.00 | 99 | 1009.0 |
| 20260510062124 | 50 | 230 | 0.0 | 0.9 | 0.00 | 0.00 | 0.00 | 99 | 1008.9 |
| 20260510061620 | 50 | 230 | 0.0 | 0.0 | 0.00 | 0.00 | 0.00 | 99 | 1008.9 |
| 20260510061118 | 50 | 230 | 0.0 | 0.0 | 0.00 | 0.00 | 0.00 | 99 | 1008.9 |
| 20260510060613 | 50 | 239 | 1.7 | 1.7 | 0.00 | 0.00 | 0.00 | 99 | 1008.6 |
| 20260510060110 | 50 | 206 | 0.9 | 0.9 | 0.00 | 0.00 | 0.00 | 99 | 1008.4 |
| 20260510055606 | 50 | 206 | 0.0 | 0.0 | 0.00 | 0.00 | 0.00 | 99 | 1008.6 |
| 20260510055105 | 50 | 217 | 0.0 | 0.0 | 0.00 | 0.00 | 0.00 | 99 | 1008.6 |
| 20260510054600 | 50 | 216 | 0.0 | 0.0 | 0.00 | 0.00 | 0.00 | 99 | 1008.7 |
| 20260510054055 | 50 | 216 | 0.0 | 0.0 | 0.00 | 0.00 | 0.00 | 99 | 1008.7 |
| 20260510053549 | 50 | 216 | 0.0 | 0.0 | 0.00 | 0.00 | 0.00 | 99 | 1008.5 |
| 20260510053046 | 50 | 216 | 0.0 | 0.0 | 0.00 | 0.00 | 0.00 | 99 | 1008.8 |
| 20260510052542 | 50 | 216 | 0.0 | 0.0 | 0.00 | 0.00 | 0.00 | 99 | 1008.8 |
| 20260510052038 | 50 | 217 | 0.0 | 0.0 | 0.00 | 0.00 | 0.00 | 99 | 1008.5 |
| 20260510051534 | 50 | 217 | 0.0 | 0.0 | 0.00 | 0.00 | 0.00 | 99 | 1008.8 |
| 20260510051031 | 50 | 217 | 0.0 | 0.0 | 0.00 | 0.00 | 0.00 | 99 | 1008.7 |
| 20260510050528 | 50 | 217 | 0.0 | 0.0 | 0.00 | 0.00 | 0.00 | 99 | 1008.6 |
| 20260510050025 | 50 | 217 | 0.0 | 0.0 | 0.00 | 0.00 | 0.00 | 99 | 1008.5 |
| 20260510045522 | 50 | 217 | 0.0 | 0.0 | 0.00 | 0.00 | 0.00 | 99 | 1008.4 |
| 20260510045018 | 50 | 208 | 0.0 | 0.9 | 0.00 | 0.00 | 0.00 | 99 | 1008.4 |
| 20260510044515 | 49 | 180 | 0.0 | 0.0 | 0.00 | 0.00 | 0.00 | 99 | 1008.2 |
| 20260510044014 | 49 | 186 | 0.0 | 0.9 | 0.00 | 0.00 | 0.00 | 99 | 1008.1 |
| 20260510043513 | 49 | 160 | 0.0 | 0.0 | 0.00 | 0.00 | 0.00 | 99 | 1008.2 |
| 20260510043009 | 49 | 142 | 0.9 | 0.9 | 0.00 | 0.00 | 0.00 | 99 | 1008.3 |
| 20260510042503 | 49 | 167 | 1.7 | 2.6 | 0.00 | 0.00 | 0.00 | 99 | 1008.3 |
| 20260510041958 | 49 | 120 | 0.9 | 1.7 | 0.00 | 0.00 | 0.00 | 99 | 1008.2 |
| 20260510041455 | 49 | 121 | 0.9 | 0.9 | 0.00 | 0.00 | 0.00 | 99 | 1008.1 |
| 20260510040954 | 49 | 194 | 1.7 | 1.7 | 0.00 | 0.00 | 0.00 | 99 | 1008.2 |
| 20260510040450 | 49 | 152 | 0.0 | 0.0 | 0.00 | 0.00 | 0.00 | 99 | 1008.1 |
| 20260510035946 | 49 | 152 | 0.0 | 0.0 | 0.00 | 0.39 | 0.39 | 99 | 1008.1 |
| 20260510035442 | 49 | 152 | 0.0 | 0.0 | 0.00 | 0.39 | 0.39 | 99 | 1008.0 |
| 20260510034936 | 48 | 152 | 0.0 | 0.0 | 0.00 | 0.39 | 0.39 | 99 | 1008.0 |
| 20260510034435 | 48 | 152 | 0.0 | 0.0 | 0.00 | 0.39 | 0.39 | 99 | 1008.1 |
| 20260510033931 | 48 | 152 | 0.9 | 0.9 | 0.00 | 0.39 | 0.39 | 99 | 1008.0 |
| 20260510033427 | 49 | 152 | 0.0 | 0.0 | 0.00 | 0.39 | 0.39 | 99 | 1007.9 |
| 20260510032924 | 48 | 152 | 0.0 | 0.0 | 0.00 | 0.39 | 0.39 | 99 | 1008.1 |
| 20260510032421 | 49 | 152 | 0.0 | 0.0 | 0.00 | 0.39 | 0.39 | 99 | 1008.0 |
| 20260510031916 | 49 | 152 | 0.9 | 0.9 | 0.00 | 0.39 | 0.39 | 99 | 1007.7 |
| 20260510031413 | 49 | 152 | 0.9 | 0.9 | 0.00 | 0.39 | 0.39 | 99 | 1008.0 |
| 20260510030912 | 49 | 153 | 0.0 | 0.0 | 0.00 | 0.39 | 0.39 | 99 | 1007.8 |
| 20260510030409 | 49 | 153 | 0.0 | 0.0 | 0.00 | 0.39 | 0.39 | 99 | 1007.9 |
| 20260510025907 | 48 | 153 | 0.0 | 0.0 | 0.00 | 0.39 | 0.39 | 99 | 1008.0 |
| 20260510025404 | 48 | 153 | 0.0 | 0.0 | 0.00 | 0.39 | 0.39 | 99 | 1007.9 |
| 20260510024901 | 49 | 153 | 0.0 | 0.0 | 0.00 | 0.39 | 0.39 | 99 | 1007.8 |
| 20260510024357 | 49 | 153 | 0.0 | 0.0 | 0.00 | 0.39 | 0.39 | 99 | 1008.1 |
| 20260510023853 | 49 | 153 | 0.0 | 0.0 | 0.00 | 0.39 | 0.39 | 99 | 1008.1 |
| 20260510023350 | 49 | 153 | 0.0 | 0.0 | 0.00 | 0.39 | 0.39 | 99 | 1008.2 |
| 20260510022848 | 49 | 153 | 0.0 | 0.9 | 0.00 | 0.39 | 0.39 | 99 | 1008.0 |
| 20260510022347 | 50 | 153 | 0.9 | 0.9 | 0.00 | 0.39 | 0.39 | 99 | 1008.1 |
| 20260510021845 | 50 | 153 | 0.0 | 0.0 | 0.00 | 0.39 | 0.39 | 99 | 1007.9 |
| 20260510021344 | 50 | 153 | 0.0 | 0.9 | 0.00 | 0.39 | 0.39 | 99 | 1008.0 |
| 20260510020840 | 49 | 153 | 0.9 | 0.9 | 0.00 | 0.39 | 0.39 | 99 | 1008.0 |
| 20260510020335 | 49 | 153 | 0.0 | 0.0 | 0.00 | 0.39 | 0.39 | 99 | 1007.9 |
| 20260510015831 | 49 | 153 | 0.0 | 0.9 | 0.00 | 0.39 | 0.39 | 99 | 1007.7 |
| 20260510015327 | 49 | 163 | 0.0 | 0.0 | 0.00 | 0.39 | 0.39 | 99 | 1008.0 |
| 20260510014822 | 49 | 163 | 0.0 | 0.9 | 0.00 | 0.39 | 0.39 | 99 | 1007.9 |
| 20260510014320 | 50 | 169 | 0.0 | 0.0 | 0.00 | 0.39 | 0.39 | 99 | 1007.8 |
| 20260510013816 | 49 | 171 | 0.9 | 0.9 | 0.00 | 0.39 | 0.39 | 99 | 1007.8 |
| 20260510013311 | 49 | 186 | 0.9 | 0.9 | 0.00 | 0.39 | 0.39 | 99 | 1007.8 |
| 20260510012806 | 50 | 153 | 0.0 | 0.0 | 0.00 | 0.39 | 0.39 | 99 | 1007.6 |
| 20260510012300 | 50 | 127 | 0.9 | 0.9 | 0.00 | 0.39 | 0.39 | 99 | 1007.7 |
| 20260510011755 | 50 | 157 | 0.9 | 0.9 | 0.00 | 0.39 | 0.39 | 99 | 1007.4 |
| 20260510011251 | 49 | 176 | 0.0 | 0.0 | 0.00 | 0.39 | 0.39 | 99 | 1007.6 |
| 20260510010748 | 49 | 177 | 0.0 | 0.0 | 0.00 | 0.39 | 0.39 | 99 | 1007.7 |
| 20260510010244 | 50 | 177 | 0.0 | 0.0 | 0.00 | 0.39 | 0.39 | 99 | 1007.5 |
| 20260510005742 | 50 | 177 | 0.0 | 0.9 | 0.00 | 0.39 | 0.39 | 99 | 1007.9 |
| 20260510005238 | 50 | 169 | 0.0 | 0.0 | 0.00 | 0.39 | 0.39 | 99 | 1007.5 |
| 20260510004736 | 51 | 103 | 0.9 | 0.9 | 0.00 | 0.39 | 0.39 | 99 | 1007.4 |
| 20260510004233 | 51 | 103 | 0.9 | 1.7 | 0.00 | 0.39 | 0.39 | 99 | 1007.4 |
| 20260510003731 | 50 | 128 | 1.7 | 2.6 | 0.00 | 0.39 | 0.39 | 99 | 1007.6 |
| 20260510003227 | 51 | 177 | 0.0 | 0.0 | 0.00 | 0.39 | 0.39 | 99 | 1007.4 |
| 20260510002725 | 51 | 185 | 0.0 | 0.0 | 0.00 | 0.39 | 0.39 | 99 | 1007.4 |
| 20260510002223 | 51 | 128 | 0.0 | 0.0 | 0.00 | 0.39 | 0.39 | 99 | 1007.3 |
| 20260510001720 | 51 | 165 | 0.0 | 0.0 | 0.00 | 0.39 | 0.39 | 99 | 1007.2 |
| 20260510001219 | 51 | 165 | 0.0 | 0.9 | 0.00 | 0.39 | 0.39 | 99 | 1007.0 |
| 20260510000714 | 51 | 165 | 0.0 | 0.9 | 0.00 | 0.39 | 0.39 | 99 | 1007.0 |
| 20260510000211 | 51 | 165 | 0.0 | 0.9 | 0.00 | 0.39 | 0.39 | 99 | 1007.2 |
| 20260509235708 | 51 | 165 | 0.0 | 0.9 | 0.00 | 0.39 | 0.39 | 99 | 1007.3 |
| 20260509235204 | 51 | 171 | 0.0 | 0.0 | 0.00 | 0.39 | 0.39 | 99 | 1006.9 |
| 20260509234701 | 52 | 177 | 0.9 | 0.9 | 0.00 | 0.39 | 0.39 | 99 | 1006.8 |
| 20260509234158 | 52 | 157 | 0.0 | 0.9 | 0.00 | 0.39 | 0.39 | 99 | 1006.7 |
| 20260509233656 | 52 | 133 | 0.9 | 0.9 | 0.00 | 0.39 | 0.39 | 99 | 1006.5 |
| 20260509233153 | 52 | 208 | 0.9 | 0.9 | 0.00 | 0.39 | 0.39 | 99 | 1006.4 |
| 20260509232649 | 52 | 214 | 0.0 | 0.0 | 0.00 | 0.39 | 0.39 | 99 | 1006.1 |
| 20260509232146 | 52 | 216 | 0.0 | 0.9 | 0.00 | 0.39 | 0.39 | 99 | 1006.2 |
| 20260509231643 | 52 | 216 | 0.0 | 0.0 | 0.00 | 0.39 | 0.39 | 99 | 1006.2 |
| 20260509231140 | 52 | 216 | 0.0 | 0.0 | 0.00 | 0.39 | 0.39 | 99 | 1006.2 |
| 20260509230637 | 53 | 216 | 0.0 | 0.0 | 0.00 | 0.39 | 0.39 | 99 | 1006.2 |
| 20260509230134 | 53 | 216 | 0.9 | 0.9 | 0.00 | 0.39 | 0.39 | 99 | 1006.4 |
| 20260509225630 | 53 | 216 | 0.0 | 0.9 | 0.00 | 0.39 | 0.39 | 99 | 1006.5 |
| 20260509225125 | 53 | 216 | 0.9 | 0.9 | 0.00 | 0.39 | 0.39 | 99 | 1006.4 |
| 20260509224621 | 53 | 216 | 0.9 | 0.9 | 0.00 | 0.39 | 0.39 | 99 | 1006.5 |
| 20260509224118 | 54 | 216 | 0.9 | 1.7 | 0.00 | 0.39 | 0.39 | 99 | 1006.3 |
| 20260509223615 | 54 | 216 | 0.0 | 0.9 | 0.00 | 0.39 | 0.39 | 99 | 1006.3 |
| 20260509223113 | 54 | 216 | 0.9 | 0.9 | 0.00 | 0.39 | 0.39 | 99 | 1006.7 |
| 20260509222608 | 54 | 217 | 0.0 | 0.0 | 0.00 | 0.39 | 0.39 | 99 | 1006.7 |
| 20260509222105 | 53 | 216 | 0.0 | 0.0 | 0.00 | 0.39 | 0.39 | 99 | 1006.6 |
| 20260509221600 | 53 | 217 | 0.0 | 0.9 | 0.00 | 0.39 | 0.39 | 99 | 1006.6 |
| 20260509221056 | 53 | 217 | 0.0 | 0.0 | 0.00 | 0.39 | 0.39 | 99 | 1006.7 |
| 20260509220552 | 53 | 217 | 0.0 | 0.0 | 0.00 | 0.39 | 0.39 | 99 | 1006.6 |
| 20260509220049 | 53 | 209 | 0.0 | 0.0 | 0.00 | 0.39 | 0.39 | 99 | 1006.5 |
| 20260509215544 | 53 | 195 | 0.9 | 0.9 | 0.00 | 0.39 | 0.39 | 99 | 1006.7 |
| 20260509215042 | 53 | 191 | 0.9 | 0.9 | 0.00 | 0.39 | 0.39 | 99 | 1006.7 |
| 20260509214539 | 53 | 198 | 0.9 | 0.9 | 0.00 | 0.39 | 0.39 | 99 | 1006.9 |
| 20260509214036 | 53 | 193 | 0.0 | 0.9 | 0.00 | 0.39 | 0.39 | 99 | 1006.8 |
| 20260509213532 | 53 | 190 | 0.0 | 0.0 | 0.00 | 0.39 | 0.39 | 99 | 1006.9 |
| 20260509213029 | 53 | 189 | 0.9 | 0.9 | 0.00 | 0.39 | 0.39 | 99 | 1006.9 |
| 20260509212526 | 53 | 189 | 0.0 | 0.9 | 0.00 | 0.39 | 0.39 | 99 | 1007.0 |
| 20260509212023 | 53 | 174 | 0.0 | 0.9 | 0.00 | 0.39 | 0.39 | 99 | 1007.0 |
| 20260509211518 | 52 | 169 | 0.0 | 0.0 | 0.00 | 0.39 | 0.39 | 99 | 1006.8 |
| 20260509211016 | 52 | 169 | 0.0 | 0.0 | 0.00 | 0.39 | 0.39 | 99 | 1006.8 |
| 20260509210512 | 51 | 169 | 0.0 | 0.0 | 0.00 | 0.39 | 0.39 | 99 | 1006.8 |
| 20260509210009 | 51 | 169 | 0.0 | 0.9 | 0.00 | 0.39 | 0.39 | 99 | 1006.8 |
| 20260509205503 | 52 | 168 | 0.0 | 0.9 | 0.00 | 0.39 | 0.39 | 99 | 1007.3 |
| 20260509204958 | 51 | 192 | 0.0 | 0.9 | 0.07 | 0.39 | 0.39 | 99 | 1007.4 |
| 20260509204455 | 51 | 204 | 0.9 | 0.9 | 0.07 | 0.39 | 0.39 | 99 | 1007.4 |
| 20260509203951 | 51 | 204 | 0.9 | 0.9 | 0.07 | 0.38 | 0.38 | 99 | 1007.4 |
| 20260509203447 | 51 | 204 | 0.0 | 0.9 | 0.07 | 0.38 | 0.38 | 99 | 1007.5 |
| 20260509202945 | 52 | 204 | 0.0 | 0.9 | 0.00 | 0.37 | 0.37 | 99 | 1007.2 |
| 20260509202441 | 51 | 204 | 0.0 | 0.0 | 0.00 | 0.37 | 0.37 | 99 | 1007.3 |
| 20260509201935 | 52 | 204 | 0.9 | 0.9 | 0.00 | 0.37 | 0.37 | 99 | 1007.2 |
| 20260509201426 | 51 | 204 | 0.9 | 0.9 | 0.05 | 0.37 | 0.37 | 99 | 1007.4 |
| 20260509200923 | 52 | 204 | 0.9 | 1.7 | 0.05 | 0.37 | 0.37 | 99 | 1007.3 |
| 20260509200422 | 52 | 204 | 0.9 | 0.9 | 0.00 | 0.36 | 0.36 | 99 | 1007.8 |
| 20260509195919 | 51 | 204 | 1.7 | 1.7 | 0.00 | 0.36 | 0.36 | 99 | 1007.7 |
| 20260509195415 | 51 | 201 | 0.9 | 1.7 | 0.00 | 0.36 | 0.36 | 99 | 1007.8 |
| 20260509194909 | 51 | 208 | 0.9 | 0.9 | 0.00 | 0.36 | 0.36 | 99 | 1008.0 |
| 20260509194405 | 51 | 208 | 0.0 | 0.0 | 0.07 | 0.36 | 0.36 | 99 | 1008.0 |
| 20260509193901 | 51 | 208 | 0.9 | 0.9 | 0.07 | 0.36 | 0.36 | 99 | 1007.9 |
| 20260509193356 | 51 | 207 | 0.0 | 0.0 | 0.05 | 0.35 | 0.35 | 99 | 1008.0 |
| 20260509192852 | 51 | 211 | 1.7 | 1.7 | 0.05 | 0.35 | 0.35 | 99 | 1008.3 |
| 20260509192348 | 50 | 211 | 1.7 | 1.7 | 0.00 | 0.34 | 0.34 | 99 | 1008.3 |
| 20260509191844 | 51 | 207 | 0.0 | 0.0 | 0.07 | 0.34 | 0.34 | 99 | 1008.2 |
| 20260509191340 | 50 | 206 | 0.9 | 0.9 | 0.12 | 0.34 | 0.34 | 99 | 1008.3 |
| 20260509190836 | 51 | 185 | 2.6 | 3.5 | 0.17 | 0.33 | 0.33 | 99 | 1008.3 |
| 20260509190333 | 51 | 201 | 0.9 | 0.9 | 0.19 | 0.32 | 0.32 | 99 | 1008.4 |
| 20260509185830 | 51 | 254 | 0.0 | 0.9 | 0.17 | 0.31 | 0.31 | 99 | 1008.5 |
| 20260509185327 | 51 | 212 | 1.7 | 1.7 | 0.12 | 0.29 | 0.29 | 99 | 1008.3 |
| 20260509184825 | 51 | 210 | 0.9 | 1.7 | 0.07 | 0.28 | 0.28 | 99 | 1008.2 |
| 20260509184321 | 51 | 215 | 2.6 | 2.6 | 0.05 | 0.27 | 0.27 | 99 | 1008.4 |
| 20260509183817 | 51 | 185 | 0.9 | 0.9 | 0.12 | 0.27 | 0.27 | 99 | 1008.5 |
| 20260509183307 | 51 | 188 | 1.7 | 1.7 | 0.14 | 0.26 | 0.26 | 99 | 1008.6 |
| 20260509182803 | 51 | 184 | 1.7 | 1.7 | 0.14 | 0.26 | 0.26 | 99 | 1008.4 |
| 20260509182300 | 51 | 140 | 2.6 | 3.5 | 0.12 | 0.24 | 0.24 | 99 | 1008.1 |
| 20260509181757 | 52 | 204 | 0.9 | 0.9 | 0.12 | 0.23 | 0.23 | 99 | 1008.7 |
| 20260509181255 | 52 | 202 | 0.9 | 0.9 | 0.05 | 0.22 | 0.22 | 99 | 1008.7 |
| 20260509180752 | 52 | 202 | 0.9 | 0.9 | 0.12 | 0.22 | 0.22 | 99 | 1008.5 |
| 20260509180248 | 52 | 220 | 2.6 | 5.2 | 0.07 | 0.21 | 0.21 | 99 | 1008.5 |
| 20260509175744 | 52 | 195 | 0.9 | 1.7 | 0.05 | 0.20 | 0.20 | 99 | 1008.6 |
| 20260509175241 | 52 | 232 | 0.9 | 1.7 | 0.05 | 0.20 | 0.20 | 99 | 1008.6 |
| 20260509174737 | 52 | 173 | 0.0 | 0.9 | 0.00 | 0.19 | 0.19 | 99 | 1008.5 |
| 20260509174233 | 52 | 184 | 0.9 | 0.9 | 0.00 | 0.19 | 0.19 | 99 | 1008.5 |
| 20260509173729 | 52 | 198 | 0.9 | 0.9 | 0.00 | 0.19 | 0.19 | 99 | 1008.3 |
| 20260509173225 | 52 | 196 | 0.0 | 0.9 | 0.07 | 0.19 | 0.19 | 99 | 1008.3 |
| 20260509172721 | 51 | 198 | 0.9 | 0.9 | 0.07 | 0.19 | 0.19 | 99 | 1008.3 |
| 20260509172217 | 51 | 202 | 0.9 | 1.7 | 0.00 | 0.18 | 0.18 | 99 | 1008.5 |
| 20260509171713 | 51 | 213 | 0.9 | 1.7 | 0.00 | 0.18 | 0.18 | 99 | 1008.3 |
| 20260509171210 | 51 | 194 | 0.9 | 0.9 | 0.05 | 0.18 | 0.18 | 99 | 1008.4 |
| 20260509170707 | 51 | 161 | 0.0 | 0.0 | 0.12 | 0.18 | 0.18 | 99 | 1008.3 |
| 20260509170202 | 51 | 182 | 0.9 | 0.9 | 0.07 | 0.17 | 0.17 | 99 | 1008.4 |
| 20260509165701 | 51 | 225 | 1.7 | 2.6 | 0.07 | 0.17 | 0.17 | 99 | 1008.5 |
| 20260509165156 | 51 | 170 | 0.9 | 0.9 | 0.00 | 0.16 | 0.16 | 99 | 1008.5 |
| 20260509164652 | 51 | 185 | 0.9 | 0.9 | 0.00 | 0.16 | 0.16 | 99 | 1008.5 |
| 20260509164148 | 51 | 181 | 0.9 | 0.9 | 0.00 | 0.16 | 0.16 | 99 | 1008.4 |
| 20260509163646 | 51 | 182 | 0.9 | 0.9 | 0.00 | 0.16 | 0.16 | 99 | 1008.4 |
| 20260509163142 | 50 | 178 | 0.0 | 0.9 | 0.00 | 0.16 | 0.16 | 99 | 1008.5 |
| 20260509162639 | 50 | 165 | 0.0 | 0.0 | 0.00 | 0.16 | 0.16 | 99 | 1008.4 |
| 20260509162135 | 50 | 161 | 0.0 | 0.9 | 0.00 | 0.16 | 0.16 | 99 | 1008.5 |
| 20260509161631 | 50 | 161 | 0.0 | 0.0 | 0.00 | 0.16 | 0.16 | 99 | 1008.5 |
| 20260509161126 | 50 | 172 | 0.0 | 0.0 | 0.00 | 0.16 | 0.16 | 99 | 1008.4 |
| 20260509160623 | 50 | 181 | 0.0 | 0.0 | 0.00 | 0.16 | 0.16 | 99 | 1008.4 |
| 20260509160118 | 50 | 164 | 0.9 | 0.9 | 0.00 | 0.16 | 0.16 | 99 | 1008.7 |
| 20260509155615 | 49 | 164 | 0.9 | 0.9 | 0.05 | 0.16 | 0.16 | 99 | 1008.6 |
| 20260509155111 | 49 | 165 | 0.0 | 0.9 | 0.05 | 0.16 | 0.16 | 99 | 1008.7 |
| 20260509154606 | 49 | 162 | 0.0 | 0.0 | 0.00 | 0.15 | 0.15 | 99 | 1008.8 |
| 20260509154104 | 49 | 164 | 0.0 | 0.0 | 0.00 | 0.15 | 0.15 | 99 | 1009.2 |
| 20260509153601 | 49 | 186 | 0.0 | 0.0 | 0.00 | 0.15 | 0.15 | 99 | 1009.1 |
| 20260509153058 | 48 | 214 | 1.7 | 1.7 | 0.00 | 0.15 | 0.15 | 99 | 1009.2 |
| 20260509152554 | 48 | 128 | 0.0 | 0.9 | 0.07 | 0.15 | 0.15 | 99 | 1009.1 |
| 20260509152051 | 48 | 120 | 0.0 | 0.0 | 0.07 | 0.15 | 0.15 | 99 | 1009.1 |
| 20260509151547 | 48 | 120 | 0.0 | 0.0 | 0.00 | 0.14 | 0.14 | 99 | 1009.2 |
| 20260509151045 | 48 | 120 | 0.0 | 0.0 | 0.00 | 0.14 | 0.14 | 99 | 1009.1 |
| 20260509150542 | 48 | 120 | 0.0 | 0.9 | 0.00 | 0.14 | 0.14 | 99 | 1009.0 |
| 20260509150035 | 48 | 120 | 0.0 | 0.0 | 0.00 | 0.14 | 0.14 | 99 | 1009.3 |
| 20260509145530 | 48 | 120 | 0.0 | 0.0 | 0.00 | 0.14 | 0.14 | 99 | 1009.4 |
| 20260509145025 | 48 | 120 | 0.9 | 0.9 | 0.00 | 0.14 | 0.14 | 99 | 1009.2 |
| 20260509144523 | 47 | 119 | 0.9 | 0.9 | 0.05 | 0.14 | 0.14 | 99 | 1009.1 |
| 20260509144020 | 47 | 125 | 0.0 | 0.9 | 0.05 | 0.14 | 0.14 | 99 | 1009.2 |
| 20260509143517 | 48 | 137 | 0.0 | 0.9 | 0.00 | 0.13 | 0.13 | 99 | 1009.0 |
| 20260509143015 | 47 | 137 | 0.0 | 0.0 | 0.00 | 0.13 | 0.13 | 99 | 1009.0 |
| 20260509142510 | 47 | 138 | 1.7 | 1.7 | 0.00 | 0.13 | 0.13 | 99 | 1009.2 |
| 20260509142006 | 47 | 126 | 0.9 | 0.9 | 0.00 | 0.13 | 0.13 | 99 | 1009.0 |
| 20260509141503 | 47 | 126 | 0.9 | 0.9 | 0.07 | 0.13 | 0.13 | 99 | 1009.1 |
| 20260509140959 | 47 | 126 | 0.9 | 0.9 | 0.07 | 0.13 | 0.13 | 99 | 1009.0 |
| 20260509140455 | 47 | 126 | 0.9 | 0.9 | 0.00 | 0.12 | 0.12 | 99 | 1008.9 |
| 20260509135954 | 46 | 125 | 0.9 | 0.9 | 0.00 | 0.12 | 0.12 | 99 | 1008.9 |
| 20260509135451 | 46 | 126 | 0.9 | 0.9 | 0.00 | 0.12 | 0.12 | 99 | 1009.0 |
| 20260509134948 | 46 | 128 | 0.9 | 0.9 | 0.07 | 0.12 | 0.12 | 99 | 1009.0 |
| 20260509134446 | 46 | 120 | 0.9 | 0.9 | 0.07 | 0.12 | 0.12 | 99 | 1009.0 |